createdAt,value
2022-10-14T01:27:51.014Z,7.70
2022-10-14T01:33:06.074Z,7.50
2022-10-14T01:38:04.852Z,7.57
2022-10-14T01:43:01.921Z,7.85
2022-10-14T01:47:59.286Z,7.28
2022-10-14T01:52:59.456Z,8.80
2022-10-14T02:08:22.045Z,8.38
2022-10-14T05:19:36.086Z,11.68
2022-10-14T06:42:12.751Z,8.10
2022-10-14T06:47:08.476Z,7.13
2022-10-14T06:52:01.776Z,7.60
2022-10-14T07:01:57.177Z,14.65
2022-10-14T07:06:51.879Z,9.73
2022-10-14T07:32:28.949Z,4.03
2022-10-14T07:37:22.782Z,4.57
2022-10-14T09:47:47.661Z,6.80
2022-10-14T09:52:41.230Z,9.55
2022-10-14T09:57:34.604Z,6.63
2022-10-14T10:02:43.986Z,8.43
2022-10-14T10:07:39.703Z,8.43
2022-10-14T10:12:46.279Z,7.03
2022-10-14T10:17:41.643Z,5.60
2022-10-14T10:22:38.849Z,5.28
2022-10-14T10:27:36.590Z,5.32
2022-10-14T10:32:38.947Z,5.20
2022-10-14T10:37:42.454Z,4.95
2022-10-14T10:42:51.479Z,4.47
2022-10-14T10:47:54.254Z,5.50
2022-10-14T10:53:24.030Z,5.15
2022-10-14T10:58:41.033Z,5.30
2022-10-14T11:03:59.761Z,5.18
2022-10-14T11:09:23.845Z,4.55
2022-10-14T11:14:50.564Z,5.03
2022-10-14T11:19:55.129Z,5.70
2022-10-14T11:25:04.188Z,5.00
2022-10-14T11:30:20.707Z,5.43
2022-10-14T11:35:29.746Z,5.10
2022-10-14T11:40:29.465Z,4.60
2022-10-14T11:45:48.734Z,5.20
2022-10-14T11:50:48.175Z,5.90
2022-10-14T11:55:51.348Z,5.30
2022-10-14T12:01:06.136Z,5.03
2022-10-14T12:06:10.818Z,4.88
2022-10-14T12:11:14.419Z,4.70
2022-10-14T12:16:20.329Z,4.70
2022-10-14T12:21:21.212Z,4.97
2022-10-14T12:26:50.255Z,4.45
2022-10-14T12:31:50.186Z,4.20
2022-10-14T12:36:50.703Z,4.40
2022-10-14T12:41:56.755Z,4.05
2022-10-14T12:46:54.142Z,5.03
2022-10-14T12:52:01.991Z,6.28
2022-10-14T12:57:01.544Z,5.15
2022-10-14T13:02:04.416Z,5.18
2022-10-14T13:07:48.960Z,4.72
2022-10-14T13:17:56.205Z,5.53
2022-10-14T13:22:49.831Z,5.15
2022-10-14T13:32:52.421Z,4.68
2022-10-14T13:43:00.451Z,5.03
2022-10-14T13:47:55.124Z,4.63
2022-10-14T13:58:14.254Z,4.32
2022-10-14T14:08:39.785Z,4.18
2022-10-14T14:13:53.237Z,5.20
2022-10-14T14:39:35.648Z,4.80
2022-10-14T15:51:46.132Z,3.50
2022-10-14T15:56:40.444Z,3.08
2022-10-14T16:01:37.714Z,3.30
2022-10-14T16:06:32.394Z,3.17
2022-10-14T16:11:29.282Z,2.58
2022-10-14T16:16:32.768Z,2.70
2022-10-14T16:21:26.025Z,3.10
2022-10-14T16:26:19.240Z,2.40
2022-10-14T16:31:16.258Z,2.88
2022-10-14T16:36:14.692Z,2.45
2022-10-14T16:41:08.631Z,1.95
2022-10-14T16:46:04.623Z,2.00
2022-10-14T16:50:59.329Z,1.80
2022-10-14T16:55:52.530Z,1.67
2022-10-14T17:00:45.879Z,1.90
2022-10-14T17:05:39.875Z,2.17
2022-10-14T17:10:34.537Z,3.00
2022-10-14T17:15:27.847Z,4.30
2022-10-14T17:20:21.946Z,3.50
2022-10-14T17:25:15.265Z,5.88
2022-10-14T17:30:11.698Z,5.97
2022-10-14T17:35:12.743Z,7.75
2022-10-14T17:45:22.811Z,5.15
2022-10-14T17:50:16.789Z,4.90
2022-10-14T18:00:15.350Z,6.88
2022-10-14T18:05:13.657Z,6.18
2022-10-14T18:10:14.350Z,5.65
2022-10-14T18:15:09.161Z,5.63
2022-10-14T18:25:15.199Z,4.40
2022-10-14T18:30:12.224Z,4.53
2022-10-14T18:35:06.331Z,4.00
2022-10-14T18:40:00.047Z,5.15
2022-10-14T18:44:54.775Z,4.72
2022-10-14T18:49:49.668Z,4.72
2022-10-14T18:54:43.093Z,4.75
2022-10-14T18:59:36.556Z,4.97
2022-10-14T19:04:31.305Z,4.60
2022-10-14T19:09:29.747Z,5.10
2022-10-14T19:14:23.061Z,5.38
2022-10-14T19:19:20.225Z,6.00
2022-10-14T19:44:57.670Z,3.97
2022-10-14T19:49:50.941Z,4.38
2022-10-14T19:54:44.178Z,4.28
2022-10-14T19:59:37.560Z,4.43
2022-10-14T20:04:32.206Z,3.90
2022-10-14T20:09:25.476Z,3.50
2022-10-14T20:14:18.988Z,3.55
2022-10-14T20:19:12.245Z,4.13
2022-10-14T20:24:07.731Z,4.10
2022-10-14T20:29:01.016Z,3.10
2022-10-14T20:33:56.745Z,2.55
2022-10-14T21:11:00.995Z,3.60
2022-10-14T21:15:54.554Z,3.70
2022-10-14T21:20:48.161Z,3.42
2022-10-14T21:25:42.123Z,4.00
2022-10-14T21:30:40.618Z,3.55
2022-10-14T21:35:33.923Z,3.58
2022-10-14T21:40:27.239Z,4.22
2022-10-14T21:45:20.793Z,4.25
2022-10-14T21:50:15.696Z,3.53
2022-10-14T21:55:10.210Z,3.35
2022-10-14T22:00:03.567Z,3.20
2022-10-14T22:04:56.775Z,3.75
2022-10-14T22:09:51.453Z,3.05
2022-10-14T22:14:44.664Z,4.13
2022-10-14T22:19:37.928Z,4.15
2022-10-14T22:24:31.220Z,3.55
2022-10-14T22:29:26.065Z,2.55
2022-10-14T22:34:20.287Z,2.80
2022-10-14T22:44:25.680Z,2.10
2022-10-14T22:49:19.334Z,2.23
2022-10-14T22:54:13.128Z,2.60
2022-10-14T22:59:09.790Z,2.70
2022-10-14T23:19:26.025Z,2.33
2022-10-14T23:29:29.810Z,2.35
2022-10-14T23:34:23.291Z,1.95
2022-10-14T23:39:18.095Z,2.17
2022-10-14T23:49:25.693Z,2.20
